createdAt,value
2017-09-18T00:01:48.163Z,60.20
2017-09-18T00:04:15.621Z,60.20
2017-09-18T00:06:43.107Z,60.40
2017-09-18T00:09:12.252Z,60.80
2017-09-18T00:11:39.735Z,60.70
2017-09-18T00:14:07.198Z,61.00
2017-09-18T00:16:34.683Z,61.00
2017-09-18T00:19:02.929Z,61.50
2017-09-18T00:21:30.385Z,61.50
2017-09-18T00:23:57.844Z,62.30
2017-09-18T00:26:25.327Z,61.60
2017-09-18T00:28:52.801Z,61.70
2017-09-18T00:31:20.266Z,61.80
2017-09-18T00:33:47.758Z,61.80
2017-09-18T00:36:15.217Z,61.90
2017-09-18T00:38:42.873Z,62.00
2017-09-18T00:41:11.186Z,62.20
2017-09-18T00:43:38.662Z,62.30
2017-09-18T00:46:06.897Z,62.20
2017-09-18T00:48:34.357Z,62.20
2017-09-18T00:51:01.832Z,62.20
2017-09-18T00:53:29.322Z,62.10
2017-09-18T00:55:56.793Z,62.20
2017-09-18T00:58:24.251Z,62.20
2017-09-18T01:00:51.733Z,62.30
2017-09-18T01:03:19.194Z,62.20
2017-09-18T01:05:46.683Z,62.30
2017-09-18T01:08:14.146Z,62.30
2017-09-18T01:10:41.617Z,62.30
2017-09-18T01:13:09.105Z,62.20
2017-09-18T01:15:36.589Z,62.20
2017-09-18T01:18:04.825Z,62.30
2017-09-18T01:20:32.355Z,62.30
2017-09-18T01:23:00.617Z,62.30
2017-09-18T01:25:28.069Z,62.20
2017-09-18T01:27:55.524Z,62.30
2017-09-18T01:30:23.058Z,62.30
2017-09-18T01:32:50.518Z,62.40
2017-09-18T01:35:18.011Z,62.30
2017-09-18T01:37:45.497Z,62.40
2017-09-18T01:40:13.358Z,62.50
2017-09-18T01:42:40.837Z,62.60
2017-09-18T01:45:08.392Z,62.60
2017-09-18T01:47:35.854Z,62.40
2017-09-18T01:50:03.361Z,62.30
2017-09-18T01:52:30.816Z,62.20
2017-09-18T01:54:58.273Z,62.30
2017-09-18T01:57:25.757Z,62.20
2017-09-18T01:59:53.221Z,62.10
2017-09-18T02:02:20.702Z,62.20
2017-09-18T02:04:48.162Z,62.20
2017-09-18T02:07:15.643Z,62.20
2017-09-18T02:09:43.891Z,62.30
2017-09-18T02:12:11.379Z,62.40
2017-09-18T02:14:38.846Z,62.50
2017-09-18T02:17:06.333Z,62.70
2017-09-18T02:19:33.789Z,62.80
2017-09-18T02:22:01.250Z,62.80
2017-09-18T02:24:28.723Z,62.80
2017-09-18T02:26:56.969Z,63.10
2017-09-18T02:29:24.466Z,63.10
2017-09-18T02:31:52.708Z,63.20
2017-09-18T02:34:20.192Z,63.10
2017-09-18T02:36:48.477Z,63.50
2017-09-18T02:39:16.703Z,63.60
2017-09-18T02:41:45.181Z,63.50
2017-09-18T02:44:12.661Z,63.40
2017-09-18T02:46:40.146Z,63.60
2017-09-18T02:49:08.367Z,63.60
2017-09-18T02:51:35.869Z,63.60
2017-09-18T02:54:03.324Z,63.60
2017-09-18T02:56:30.789Z,63.50
2017-09-18T02:58:58.721Z,63.50
2017-09-18T03:01:26.206Z,63.50
2017-09-18T03:03:53.677Z,63.40
2017-09-18T03:06:21.168Z,63.40
2017-09-18T03:08:48.642Z,63.50
2017-09-18T03:11:16.124Z,63.60
2017-09-18T03:13:43.585Z,63.70
2017-09-18T03:16:11.039Z,63.80
2017-09-18T03:18:38.521Z,63.80
2017-09-18T03:21:05.978Z,63.80
2017-09-18T03:23:33.462Z,63.90
2017-09-18T03:26:00.918Z,64.00
2017-09-18T03:28:29.161Z,64.20
2017-09-18T03:30:56.627Z,64.20
2017-09-18T03:33:24.085Z,64.10
2017-09-18T03:35:51.597Z,64.00
2017-09-18T03:38:19.060Z,63.90
2017-09-18T03:40:46.525Z,64.10
2017-09-18T03:43:14.022Z,64.00
2017-09-18T03:45:41.478Z,64.00
2017-09-18T03:48:09.037Z,64.00
2017-09-18T03:50:36.733Z,64.10
2017-09-18T03:53:05.194Z,64.00
2017-09-18T03:55:32.651Z,63.90
2017-09-18T03:58:00.133Z,63.90
2017-09-18T04:00:27.599Z,63.60
2017-09-18T04:02:55.081Z,63.70
2017-09-18T04:05:22.588Z,63.80
2017-09-18T04:07:50.825Z,63.70
2017-09-18T04:10:18.382Z,63.60
2017-09-18T04:12:46.092Z,63.70
2017-09-18T04:15:14.334Z,63.60
2017-09-18T04:17:41.825Z,63.60
2017-09-18T04:20:10.056Z,63.40
2017-09-18T04:22:37.509Z,63.40
2017-09-18T04:25:04.997Z,63.40
2017-09-18T04:27:32.454Z,63.30
2017-09-18T04:30:00.022Z,63.50
2017-09-18T04:32:27.501Z,63.80
2017-09-18T04:34:55.755Z,64.00
2017-09-18T04:37:23.229Z,64.00
2017-09-18T04:39:51.463Z,63.90
2017-09-18T04:42:18.949Z,63.90
2017-09-18T04:44:46.750Z,64.10
2017-09-18T04:47:14.198Z,64.20
2017-09-18T04:49:42.445Z,64.30
2017-09-18T04:52:09.901Z,64.40
2017-09-18T04:54:37.364Z,64.30
2017-09-18T04:57:04.852Z,64.40
2017-09-18T04:59:32.309Z,64.40
2017-09-18T05:02:00.533Z,64.40
2017-09-18T05:04:28.013Z,64.40
2017-09-18T05:06:55.485Z,64.40
2017-09-18T05:09:22.986Z,64.70
2017-09-18T05:11:50.455Z,64.90
2017-09-18T05:14:17.920Z,64.80
2017-09-18T05:16:45.396Z,65.00
2017-09-18T05:19:12.878Z,66.00
2017-09-18T05:21:41.114Z,65.10
2017-09-18T05:24:08.589Z,65.10
2017-09-18T05:26:36.055Z,65.00
2017-09-18T05:29:03.563Z,64.80
2017-09-18T05:31:31.241Z,64.90
2017-09-18T05:33:58.767Z,65.00
2017-09-18T05:36:26.238Z,65.80
2017-09-18T05:38:53.713Z,65.10
2017-09-18T05:41:21.193Z,65.10
2017-09-18T05:43:48.681Z,65.20
2017-09-18T05:46:17.849Z,65.20
2017-09-18T05:48:45.342Z,65.20
2017-09-18T05:51:12.806Z,65.20
2017-09-18T05:53:40.267Z,65.20
2017-09-18T05:56:07.774Z,65.40
2017-09-18T05:58:35.239Z,65.50
2017-09-18T06:01:02.699Z,65.50
2017-09-18T06:03:30.201Z,65.40
2017-09-18T06:05:58.435Z,65.40
2017-09-18T06:08:25.896Z,65.30
2017-09-18T06:10:53.401Z,65.50
2017-09-18T06:13:21.609Z,65.30
2017-09-18T06:15:49.128Z,65.30
2017-09-18T06:18:17.431Z,65.30
2017-09-18T06:20:44.961Z,65.30
2017-09-18T06:23:12.417Z,65.30
2017-09-18T06:25:40.642Z,65.30
2017-09-18T06:28:08.122Z,65.20
2017-09-18T06:30:35.582Z,65.20
2017-09-18T06:33:03.105Z,65.20
2017-09-18T06:35:30.567Z,65.20
2017-09-18T06:37:58.025Z,65.20
2017-09-18T06:40:25.562Z,65.20
2017-09-18T06:42:53.046Z,65.30
2017-09-18T06:45:20.509Z,65.30
2017-09-18T06:47:48.894Z,65.20
2017-09-18T06:50:16.394Z,65.20
2017-09-18T06:52:44.624Z,65.20
2017-09-18T06:55:12.124Z,65.20
2017-09-18T06:57:40.389Z,65.10
2017-09-18T07:00:07.878Z,65.10
2017-09-18T07:02:36.113Z,65.00
2017-09-18T07:05:03.617Z,65.00
2017-09-18T07:07:31.846Z,64.60
2017-09-18T07:09:59.353Z,64.60
2017-09-18T07:12:27.605Z,64.80
2017-09-18T07:14:55.066Z,64.70
2017-09-18T07:17:22.603Z,64.80
2017-09-18T07:19:50.124Z,64.80
2017-09-18T07:22:17.573Z,64.80
2017-09-18T07:24:45.046Z,64.60
2017-09-18T07:27:12.533Z,65.30
2017-09-18T07:29:39.993Z,64.40
2017-09-18T07:32:07.454Z,64.70
2017-09-18T07:34:34.955Z,64.60
2017-09-18T07:37:03.182Z,64.60
2017-09-18T07:39:31.533Z,64.50
2017-09-18T07:41:59.008Z,64.50
2017-09-18T07:44:26.505Z,64.50
2017-09-18T07:46:53.985Z,64.70
2017-09-18T07:49:21.490Z,64.40
2017-09-18T07:51:48.967Z,64.30
2017-09-18T07:54:16.454Z,64.20
2017-09-18T07:56:44.702Z,64.30
2017-09-18T07:59:12.157Z,64.30
2017-09-18T08:01:39.618Z,64.20
2017-09-18T08:04:07.109Z,64.10
2017-09-18T08:06:35.354Z,64.30
2017-09-18T08:09:02.834Z,64.20
2017-09-18T08:11:31.094Z,64.20
2017-09-18T08:13:58.572Z,64.20
2017-09-18T08:16:26.806Z,63.70
2017-09-18T08:18:54.317Z,63.60
2017-09-18T08:21:21.782Z,63.50
2017-09-18T08:23:49.257Z,63.40
2017-09-18T08:26:16.741Z,63.30
2017-09-18T08:28:44.243Z,63.20
2017-09-18T08:31:12.462Z,63.70
2017-09-18T08:33:39.937Z,63.60
2017-09-18T08:36:07.445Z,63.50
2017-09-18T08:38:35.735Z,63.40
2017-09-18T08:41:03.203Z,63.40
2017-09-18T08:43:30.712Z,63.50
2017-09-18T08:45:58.182Z,63.30
2017-09-18T08:48:25.638Z,63.20
2017-09-18T08:50:53.127Z,63.40
2017-09-18T08:53:21.171Z,63.50
2017-09-18T08:55:48.635Z,63.40
2017-09-18T08:58:16.128Z,63.10
2017-09-18T09:00:43.594Z,63.00
2017-09-18T09:03:11.101Z,62.80
2017-09-18T09:05:39.330Z,62.40
2017-09-18T09:08:06.811Z,62.30
2017-09-18T09:10:34.287Z,62.10
2017-09-18T09:13:02.570Z,61.90
2017-09-18T09:15:30.796Z,62.40
2017-09-18T09:17:58.391Z,61.90
2017-09-18T09:20:25.877Z,61.90
2017-09-18T09:22:53.332Z,61.40
2017-09-18T09:25:22.474Z,60.60
2017-09-18T09:27:49.963Z,60.60
2017-09-18T09:30:17.489Z,60.50
2017-09-18T09:32:44.948Z,60.90
2017-09-18T09:35:12.445Z,60.80
2017-09-18T09:37:39.898Z,60.60
2017-09-18T09:40:07.354Z,60.60
2017-09-18T09:42:34.833Z,60.20
2017-09-18T09:45:02.300Z,60.00
2017-09-18T09:47:30.553Z,59.30
2017-09-18T09:49:58.017Z,59.30
2017-09-18T09:52:25.473Z,58.90
2017-09-18T09:54:53.013Z,59.20
2017-09-18T09:57:20.653Z,59.50
2017-09-18T09:59:48.191Z,59.80
2017-09-18T10:02:15.672Z,59.60
2017-09-18T10:04:43.200Z,59.40
2017-09-18T10:07:10.730Z,58.90
2017-09-18T10:09:38.205Z,58.70
2017-09-18T10:12:06.425Z,58.20
2017-09-18T10:14:33.890Z,57.70
2017-09-18T10:17:01.354Z,57.30
2017-09-18T10:19:28.831Z,57.10
2017-09-18T10:21:56.361Z,56.80
2017-09-18T10:24:23.837Z,56.70
2017-09-18T10:26:51.320Z,56.20
2017-09-18T10:29:18.802Z,56.00
2017-09-18T10:31:46.286Z,56.00
2017-09-18T10:34:13.802Z,55.40
2017-09-18T10:36:41.372Z,55.10
2017-09-18T10:39:09.607Z,55.20
2017-09-18T10:41:37.185Z,55.10
2017-09-18T10:44:04.639Z,54.90
2017-09-18T10:46:32.130Z,54.80
2017-09-18T10:48:59.595Z,54.50
2017-09-18T10:51:27.094Z,54.70
2017-09-18T10:53:54.598Z,55.20
2017-09-18T10:56:23.742Z,55.40
2017-09-18T10:58:51.224Z,55.40
2017-09-18T11:01:18.727Z,55.50
2017-09-18T11:03:46.190Z,55.30
2017-09-18T11:06:13.645Z,55.50
2017-09-18T11:08:41.114Z,55.70
2017-09-18T11:11:08.582Z,55.70
2017-09-18T11:13:36.066Z,55.80
2017-09-18T11:16:03.529Z,55.80
2017-09-18T11:18:30.989Z,56.40
2017-09-18T11:20:58.488Z,57.00
2017-09-18T11:23:26.808Z,57.90
2017-09-18T11:25:54.275Z,57.90
2017-09-18T11:28:21.786Z,58.20
2017-09-18T11:30:49.246Z,57.80
2017-09-18T11:33:16.718Z,58.30
2017-09-18T11:35:44.225Z,58.00
2017-09-18T11:38:11.773Z,57.90
2017-09-18T11:40:39.245Z,57.30
2017-09-18T11:43:06.698Z,56.80
2017-09-18T11:45:34.193Z,56.10
2017-09-18T11:48:01.644Z,55.70
2017-09-18T11:50:29.207Z,55.20
2017-09-18T11:52:57.456Z,55.40
2017-09-18T11:55:24.945Z,55.40
2017-09-18T11:57:52.422Z,55.10
2017-09-18T12:00:19.902Z,54.50
2017-09-18T12:02:47.386Z,53.40
2017-09-18T12:05:14.865Z,52.60
2017-09-18T12:07:43.089Z,52.00
2017-09-18T12:10:10.701Z,52.00
2017-09-18T12:12:38.926Z,52.00
2017-09-18T12:15:06.394Z,52.00
2017-09-18T12:17:33.874Z,51.80
2017-09-18T12:20:01.349Z,51.40
2017-09-18T12:22:29.605Z,51.50
2017-09-18T12:24:57.061Z,51.40
2017-09-18T12:27:25.261Z,51.70
2017-09-18T12:29:52.762Z,51.90
2017-09-18T12:32:20.221Z,51.90
2017-09-18T12:34:47.690Z,52.20
2017-09-18T12:37:15.188Z,52.70
2017-09-18T12:39:42.685Z,53.80
2017-09-18T12:42:10.179Z,53.70
2017-09-18T12:44:37.659Z,53.70
2017-09-18T12:47:05.121Z,53.70
2017-09-18T12:49:32.618Z,54.00
2017-09-18T12:52:00.073Z,54.30
2017-09-18T12:54:27.558Z,54.30
2017-09-18T12:56:55.693Z,54.60
2017-09-18T12:59:23.919Z,54.00
2017-09-18T13:01:51.392Z,54.00
2017-09-18T13:04:18.837Z,53.70
2017-09-18T13:06:46.333Z,53.40
2017-09-18T13:09:14.572Z,54.10
2017-09-18T13:11:42.022Z,54.00
2017-09-18T13:14:09.502Z,54.70
2017-09-18T13:16:36.949Z,55.20
2017-09-18T13:19:04.430Z,55.60
2017-09-18T13:21:31.905Z,56.20
2017-09-18T13:24:00.121Z,56.90
2017-09-18T13:26:27.600Z,56.90
2017-09-18T13:28:55.054Z,56.50
2017-09-18T13:31:22.538Z,56.80
2017-09-18T13:33:50.041Z,57.30
2017-09-18T13:36:17.525Z,57.90
2017-09-18T13:38:45.017Z,58.40
2017-09-18T13:41:12.478Z,58.80
2017-09-18T13:43:39.930Z,59.00
2017-09-18T13:46:07.422Z,59.20
2017-09-18T13:48:34.950Z,59.20
2017-09-18T13:51:02.433Z,59.40
2017-09-18T13:53:29.889Z,59.50
2017-09-18T13:55:57.397Z,59.50
2017-09-18T13:58:24.849Z,59.60
2017-09-18T14:00:52.430Z,59.60
2017-09-18T14:03:20.714Z,59.20
2017-09-18T14:05:49.772Z,58.80
2017-09-18T14:08:17.238Z,58.80
2017-09-18T14:10:44.758Z,58.70
2017-09-18T14:13:12.217Z,58.70
2017-09-18T14:15:39.699Z,58.30
2017-09-18T14:18:07.142Z,58.10
2017-09-18T14:20:34.631Z,57.80
2017-09-18T14:23:02.081Z,57.80
2017-09-18T14:25:29.533Z,58.10
2017-09-18T14:27:57.310Z,58.40
2017-09-18T14:30:24.766Z,58.40
2017-09-18T14:32:52.219Z,58.30
2017-09-18T14:35:19.693Z,58.30
2017-09-18T14:37:47.153Z,58.30
2017-09-18T14:40:14.693Z,58.00
2017-09-18T14:42:42.151Z,57.80
2017-09-18T14:45:09.606Z,57.40
2017-09-18T14:47:37.115Z,57.30
2017-09-18T14:50:04.589Z,57.00
2017-09-18T14:52:32.033Z,56.80
2017-09-18T14:54:59.589Z,56.70
2017-09-18T14:57:27.860Z,55.50
2017-09-18T14:59:55.305Z,54.30
2017-09-18T15:02:22.768Z,54.60
2017-09-18T15:04:51.040Z,54.70
2017-09-18T15:07:19.253Z,54.60
2017-09-18T15:09:47.040Z,54.90
2017-09-18T15:12:14.775Z,55.00
2017-09-18T15:14:42.330Z,54.90
2017-09-18T15:17:10.599Z,54.80
2017-09-18T15:19:38.077Z,54.70
2017-09-18T15:22:06.297Z,55.00
2017-09-18T15:24:33.774Z,55.00
2017-09-18T15:27:01.249Z,55.10
2017-09-18T15:29:28.734Z,55.30
2017-09-18T15:31:56.189Z,55.50
2017-09-18T15:34:24.425Z,56.20
2017-09-18T15:36:51.909Z,56.10
2017-09-18T15:39:20.267Z,56.30
2017-09-18T15:41:47.755Z,56.30
2017-09-18T15:44:15.990Z,56.50
2017-09-18T15:46:43.446Z,56.40
2017-09-18T15:49:10.932Z,56.50
2017-09-18T15:51:38.481Z,56.50
2017-09-18T15:54:05.959Z,56.60
2017-09-18T15:56:34.215Z,56.80
2017-09-18T15:59:01.719Z,56.80
2017-09-18T16:01:29.173Z,56.60
2017-09-18T16:03:56.645Z,56.30
2017-09-18T16:06:24.130Z,56.40
2017-09-18T16:08:51.670Z,56.50
2017-09-18T16:11:19.177Z,56.60
2017-09-18T16:13:46.657Z,56.60
2017-09-18T16:16:14.149Z,56.70
2017-09-18T16:18:41.621Z,56.90
2017-09-18T16:21:09.083Z,57.00
2017-09-18T16:23:36.575Z,57.10
2017-09-18T16:26:04.796Z,57.00
2017-09-18T16:28:32.276Z,57.00
2017-09-18T16:31:01.929Z,56.60
2017-09-18T16:33:30.304Z,56.50
2017-09-18T16:35:59.905Z,56.40
2017-09-18T16:38:27.469Z,56.50
2017-09-18T16:40:55.925Z,56.60
2017-09-18T16:43:23.805Z,56.50
2017-09-18T16:45:52.270Z,56.50
2017-09-18T16:48:20.054Z,56.50
2017-09-18T16:50:47.514Z,55.30
2017-09-18T16:53:14.989Z,54.60
2017-09-18T16:55:42.438Z,54.50
2017-09-18T16:58:09.933Z,54.60
2017-09-18T17:00:37.453Z,54.90
2017-09-18T17:03:05.693Z,55.60
2017-09-18T17:05:33.190Z,55.60
2017-09-18T17:08:01.407Z,56.20
2017-09-18T17:10:28.873Z,56.30
2017-09-18T17:12:56.358Z,56.50
2017-09-18T17:15:24.575Z,57.20
2017-09-18T17:17:52.505Z,57.20
2017-09-18T17:20:20.806Z,57.30
2017-09-18T17:22:48.465Z,57.50
2017-09-18T17:25:17.162Z,58.00
2017-09-18T17:27:45.592Z,57.90
2017-09-18T17:30:13.789Z,58.00
2017-09-18T17:32:42.273Z,58.00
2017-09-18T17:35:10.224Z,58.30
2017-09-18T17:37:38.950Z,58.90
2017-09-18T17:40:06.485Z,58.80
2017-09-18T17:42:33.966Z,58.80
2017-09-18T17:45:01.452Z,58.70
2017-09-18T17:47:28.949Z,58.90
2017-09-18T17:49:56.467Z,58.70
2017-09-18T17:52:23.976Z,58.80
2017-09-18T17:54:51.469Z,59.00
2017-09-18T17:57:19.681Z,58.90
2017-09-18T17:59:47.141Z,58.90
2017-09-18T18:02:14.614Z,59.00
2017-09-18T18:04:42.065Z,59.00
2017-09-18T18:07:09.613Z,59.00
2017-09-18T18:09:37.077Z,59.20
2017-09-18T18:12:04.529Z,59.10
2017-09-18T18:14:32.006Z,59.10
2017-09-18T18:16:59.519Z,59.10
2017-09-18T18:19:27.761Z,59.20
2017-09-18T18:21:55.218Z,59.20
2017-09-18T18:24:22.712Z,59.40
2017-09-18T18:26:50.169Z,59.40
2017-09-18T18:29:18.503Z,59.60
2017-09-18T18:31:45.959Z,59.50
2017-09-18T18:34:13.409Z,59.70
2017-09-18T18:36:41.057Z,59.60
2017-09-18T18:39:08.532Z,59.50
2017-09-18T18:41:36.139Z,59.50
2017-09-18T18:44:03.650Z,59.70
2017-09-18T18:46:31.718Z,59.80
2017-09-18T18:48:59.217Z,59.80
2017-09-18T18:51:26.701Z,59.80
2017-09-18T18:53:54.145Z,60.00
2017-09-18T18:56:21.637Z,60.20
2017-09-18T18:58:49.389Z,60.10
2017-09-18T19:01:17.928Z,60.20
2017-09-18T19:03:45.401Z,60.30
2017-09-18T19:06:12.903Z,60.40
2017-09-18T19:08:41.198Z,60.60
2017-09-18T19:11:08.750Z,60.50
2017-09-18T19:13:36.201Z,60.50
2017-09-18T19:16:03.676Z,60.40
2017-09-18T19:18:32.222Z,60.60
2017-09-18T19:20:59.713Z,60.70
2017-09-18T19:23:27.189Z,60.70
2017-09-18T19:25:55.418Z,60.90
2017-09-18T19:28:22.958Z,60.80
2017-09-18T19:30:51.209Z,61.30
2017-09-18T19:33:18.669Z,61.20
2017-09-18T19:35:46.161Z,61.30
2017-09-18T19:38:13.650Z,61.40
2017-09-18T19:40:41.145Z,61.50
2017-09-18T19:43:08.617Z,61.60
2017-09-18T19:45:36.080Z,61.70
2017-09-18T19:48:03.564Z,61.70
2017-09-18T19:50:31.210Z,61.80
2017-09-18T19:52:58.706Z,61.90
2017-09-18T19:55:26.161Z,62.10
2017-09-18T19:57:53.625Z,62.20
2017-09-18T20:00:21.108Z,62.30
2017-09-18T20:02:48.635Z,62.30
2017-09-18T20:05:16.120Z,62.40
2017-09-18T20:07:43.585Z,62.60
2017-09-18T20:10:11.094Z,62.70
2017-09-18T20:12:41.929Z,62.70
2017-09-18T20:15:09.418Z,62.90
2017-09-18T20:17:36.879Z,63.00
2017-09-18T20:20:04.366Z,63.10
2017-09-18T20:22:31.867Z,63.10
2017-09-18T20:24:59.366Z,63.10
2017-09-18T20:27:26.820Z,63.20
2017-09-18T20:29:54.365Z,63.30
2017-09-18T20:32:21.899Z,63.40
2017-09-18T20:34:49.412Z,63.40
2017-09-18T20:37:17.176Z,63.60
2017-09-18T20:39:44.629Z,63.70
2017-09-18T20:42:12.108Z,63.60
2017-09-18T20:44:39.588Z,63.80
2017-09-18T20:47:07.058Z,63.80
2017-09-18T20:49:34.546Z,63.90
2017-09-18T20:52:02.024Z,63.90
2017-09-18T20:54:29.480Z,64.00
2017-09-18T20:56:56.977Z,64.10
2017-09-18T20:59:25.264Z,64.40
2017-09-18T21:01:52.735Z,64.40
2017-09-18T21:04:20.238Z,64.40
2017-09-18T21:06:47.759Z,64.40
2017-09-18T21:09:15.226Z,64.50
2017-09-18T21:11:42.782Z,64.70
2017-09-18T21:14:10.289Z,64.80
2017-09-18T21:16:37.770Z,65.50
2017-09-18T21:19:06.105Z,64.90
2017-09-18T21:21:34.906Z,64.80
2017-09-18T21:24:02.386Z,64.80
2017-09-18T21:26:30.628Z,64.70
2017-09-18T21:28:58.143Z,64.70
2017-09-18T21:31:25.596Z,64.80
2017-09-18T21:33:53.088Z,64.90
2017-09-18T21:36:20.661Z,65.00
2017-09-18T21:38:48.124Z,64.90
2017-09-18T21:41:15.617Z,65.00
2017-09-18T21:43:43.841Z,65.00
2017-09-18T21:46:11.311Z,65.10
2017-09-18T21:48:38.915Z,65.70
2017-09-18T21:51:06.395Z,65.30
2017-09-18T21:53:34.657Z,65.20
2017-09-18T21:56:02.213Z,65.20
2017-09-18T21:58:30.516Z,65.30
2017-09-18T22:00:58.746Z,65.30
2017-09-18T22:03:26.230Z,65.30
2017-09-18T22:05:53.682Z,65.40
2017-09-18T22:08:21.974Z,65.40
2017-09-18T22:10:49.463Z,65.40
2017-09-18T22:13:16.953Z,65.50
2017-09-18T22:15:44.406Z,65.50
2017-09-18T22:18:11.861Z,65.50
2017-09-18T22:20:39.366Z,65.40
2017-09-18T22:23:06.825Z,65.40
2017-09-18T22:25:35.247Z,65.40
2017-09-18T22:28:02.713Z,65.50
2017-09-18T22:30:30.177Z,65.60
2017-09-18T22:32:57.726Z,65.60
2017-09-18T22:35:25.225Z,65.70
2017-09-18T22:37:53.484Z,65.70
2017-09-18T22:40:20.954Z,65.60
2017-09-18T22:42:49.213Z,65.80
2017-09-18T22:45:16.708Z,65.80
2017-09-18T22:47:44.205Z,65.90
2017-09-18T22:50:11.750Z,65.90
2017-09-18T22:52:39.235Z,66.10
2017-09-18T22:55:06.722Z,66.10
2017-09-18T22:57:35.909Z,66.30
2017-09-18T23:00:03.373Z,66.30
2017-09-18T23:02:30.868Z,66.30
2017-09-18T23:04:58.321Z,66.30
2017-09-18T23:07:25.808Z,66.20
2017-09-18T23:09:53.385Z,66.30
2017-09-18T23:12:20.857Z,66.30
2017-09-18T23:14:48.322Z,66.30
2017-09-18T23:17:16.594Z,66.50
2017-09-18T23:19:44.057Z,66.40
2017-09-18T23:22:11.660Z,66.60
2017-09-18T23:24:39.173Z,66.60
2017-09-18T23:27:06.638Z,66.60
2017-09-18T23:29:34.115Z,66.70
2017-09-18T23:32:01.598Z,66.60
2017-09-18T23:34:29.253Z,66.60
2017-09-18T23:36:56.740Z,66.60
2017-09-18T23:39:24.350Z,66.70
2017-09-18T23:41:52.590Z,66.70
2017-09-18T23:44:20.093Z,66.70
2017-09-18T23:46:47.557Z,66.90
2017-09-18T23:49:15.032Z,66.80
2017-09-18T23:51:42.514Z,66.90
2017-09-18T23:54:10.735Z,66.90
2017-09-18T23:56:38.238Z,66.80
2017-09-18T23:59:07.390Z,66.60
